createdAt,value
2024-04-08T00:50:28.992Z,94.64
2024-04-08T00:52:56.272Z,94.59
2024-04-08T00:55:23.846Z,94.93
2024-04-08T00:57:51.147Z,95.00
2024-04-08T01:00:17.676Z,95.23
2024-04-08T01:02:44.345Z,95.71
2024-04-08T01:05:15.047Z,94.92
2024-04-08T01:07:47.064Z,95.70
2024-04-08T01:10:14.248Z,95.28
2024-04-08T01:12:44.081Z,95.37
2024-04-08T01:15:11.223Z,95.32
2024-04-08T01:17:37.806Z,95.32
2024-04-08T01:20:04.815Z,95.55
2024-04-08T01:22:32.522Z,95.36
2024-04-08T01:24:59.905Z,95.62
2024-04-08T01:27:27.226Z,95.90
2024-04-08T01:29:54.000Z,95.86
2024-04-08T01:32:20.757Z,96.16
2024-04-08T01:34:47.267Z,95.72
2024-04-08T01:37:13.764Z,95.06
2024-04-08T01:39:40.569Z,95.26
2024-04-08T01:42:07.129Z,95.12
2024-04-08T01:44:33.691Z,95.44
2024-04-08T01:47:00.333Z,95.39
2024-04-08T01:49:29.064Z,95.38
2024-04-08T01:51:55.662Z,95.29
2024-04-08T01:54:22.657Z,95.03
2024-04-08T01:56:58.214Z,94.86
2024-04-08T01:59:24.756Z,95.16
2024-04-08T02:01:51.261Z,95.22
2024-04-08T02:04:17.749Z,95.46
2024-04-08T02:06:44.222Z,95.13
2024-04-08T02:09:10.710Z,94.99
2024-04-08T02:11:37.475Z,95.09
2024-04-08T02:14:04.097Z,94.76
2024-04-08T02:16:31.149Z,94.78
2024-04-08T02:18:57.659Z,94.62
2024-04-08T02:21:24.170Z,94.93
2024-04-08T02:23:50.710Z,95.56
2024-04-08T02:26:17.204Z,95.33
2024-04-08T02:28:43.694Z,95.35
2024-04-08T02:31:10.231Z,95.52
2024-04-08T02:33:36.833Z,94.68
2024-04-08T02:36:06.066Z,94.83
2024-04-08T02:38:34.216Z,94.81
2024-04-08T02:41:01.323Z,94.86
2024-04-08T02:43:27.950Z,95.01
2024-04-08T02:45:54.489Z,95.24
2024-04-08T02:48:21.973Z,94.86
2024-04-08T02:50:49.051Z,95.78
2024-04-08T02:53:15.677Z,95.23
2024-04-08T02:55:42.184Z,95.92
2024-04-08T02:58:08.742Z,95.85
2024-04-08T03:00:41.602Z,96.05
2024-04-08T03:03:08.166Z,96.03
2024-04-08T03:05:34.723Z,95.92
2024-04-08T03:08:01.562Z,96.12
2024-04-08T03:10:28.097Z,95.93
2024-04-08T03:12:54.938Z,96.01
2024-04-08T03:15:21.485Z,95.77
2024-04-08T03:17:48.267Z,95.64
2024-04-08T03:20:14.972Z,95.93
2024-04-08T03:22:41.617Z,96.47
2024-04-08T03:25:08.392Z,96.35
2024-04-08T03:27:35.008Z,96.18
2024-04-08T03:30:01.574Z,96.23
2024-04-08T03:32:28.110Z,96.00
2024-04-08T03:34:54.633Z,96.23
2024-04-08T03:37:27.548Z,96.01
2024-04-08T03:39:54.054Z,96.21
2024-04-08T03:42:22.526Z,96.62
2024-04-08T03:44:49.938Z,96.58
2024-04-08T03:47:16.753Z,96.27
2024-04-08T03:49:43.823Z,96.47
2024-04-08T03:52:10.333Z,96.83
2024-04-08T03:54:36.903Z,96.40
2024-04-08T03:57:03.625Z,96.72
2024-04-08T03:59:30.175Z,96.46
2024-04-08T04:01:58.793Z,96.36
2024-04-08T04:04:25.639Z,96.65
2024-04-08T04:06:52.184Z,96.30
2024-04-08T04:09:18.906Z,96.17
2024-04-08T04:11:45.436Z,96.35
2024-04-08T04:14:12.014Z,96.02
2024-04-08T04:16:38.497Z,96.23
2024-04-08T04:19:05.073Z,96.26
2024-04-08T04:21:31.591Z,96.35
2024-04-08T04:23:58.120Z,96.06
2024-04-08T04:26:24.662Z,96.15
2024-04-08T04:28:51.148Z,96.33
2024-04-08T04:31:17.914Z,96.53
2024-04-08T04:33:44.435Z,96.23
2024-04-08T04:36:10.968Z,96.04
2024-04-08T04:38:37.508Z,95.98
2024-04-08T04:41:06.955Z,95.87
2024-04-08T04:43:34.042Z,96.34
2024-04-08T04:46:00.875Z,96.38
2024-04-08T04:48:27.754Z,96.46
2024-04-08T04:50:54.772Z,96.07
2024-04-08T04:53:21.902Z,95.66
2024-04-08T04:55:54.722Z,95.70
2024-04-08T04:58:24.519Z,96.67
2024-04-08T05:00:51.573Z,96.10
2024-04-08T05:03:19.996Z,96.09
2024-04-08T05:05:57.384Z,95.64
2024-04-08T05:08:24.724Z,95.54
2024-04-08T05:10:51.590Z,95.35
2024-04-08T05:13:19.397Z,95.32
2024-04-08T05:16:15.561Z,95.46
2024-04-08T05:18:42.066Z,95.67
2024-04-08T05:21:10.459Z,95.81
2024-04-08T05:23:37.001Z,95.88
2024-04-08T05:26:04.332Z,95.73
2024-04-08T05:28:30.947Z,95.77
2024-04-08T05:30:57.545Z,95.82
2024-04-08T05:33:24.194Z,95.69
2024-04-08T05:35:50.790Z,96.04
2024-04-08T05:38:17.426Z,96.07
2024-04-08T05:40:44.053Z,96.08
2024-04-08T05:43:15.834Z,96.07
2024-04-08T05:45:43.094Z,95.93
2024-04-08T05:48:10.182Z,96.02
2024-04-08T05:50:36.760Z,95.88
2024-04-08T05:53:03.349Z,95.97
2024-04-08T05:55:31.866Z,95.45
2024-04-08T05:57:58.537Z,95.71
2024-04-08T06:00:25.297Z,95.91
2024-04-08T06:02:53.448Z,96.02
2024-04-08T06:05:21.273Z,95.91
2024-04-08T06:07:50.531Z,96.09
2024-04-08T06:10:18.353Z,96.32
2024-04-08T06:12:45.619Z,96.46
2024-04-08T06:15:13.993Z,96.56
2024-04-08T06:17:40.592Z,96.96
2024-04-08T06:20:07.779Z,96.42
2024-04-08T06:22:36.528Z,96.11
2024-04-08T06:25:04.025Z,96.51
2024-04-08T06:27:30.894Z,95.94
2024-04-08T06:29:57.537Z,96.15
2024-04-08T06:32:24.619Z,95.69
2024-04-08T06:34:51.165Z,95.85
2024-04-08T06:37:17.715Z,96.30
2024-04-08T06:39:44.306Z,95.95
2024-04-08T06:42:18.240Z,96.10
2024-04-08T06:44:49.005Z,95.37
2024-04-08T06:47:15.741Z,95.60
2024-04-08T06:49:43.206Z,94.48
2024-04-08T06:52:09.715Z,94.01
2024-04-08T06:54:36.340Z,93.72
2024-04-08T06:57:03.107Z,93.37
2024-04-08T06:59:29.763Z,92.95
2024-04-08T07:01:56.889Z,93.37
2024-04-08T07:04:23.711Z,92.89
2024-04-08T07:06:50.333Z,93.37
2024-04-08T07:09:16.825Z,93.23
2024-04-08T07:11:44.183Z,93.54
2024-04-08T07:14:10.725Z,92.90
2024-04-08T07:16:37.374Z,93.22
2024-04-08T07:19:04.245Z,92.80
2024-04-08T07:21:30.736Z,92.85
2024-04-08T07:23:57.265Z,93.57
2024-04-08T07:26:23.841Z,93.00
2024-04-08T07:28:52.045Z,92.31
2024-04-08T07:31:19.132Z,91.17
2024-04-08T07:33:45.699Z,92.00
2024-04-08T07:36:12.202Z,91.03
2024-04-08T07:38:52.564Z,91.31
2024-04-08T07:41:25.267Z,89.82
2024-04-08T07:43:51.787Z,89.49
2024-04-08T07:46:18.366Z,89.25
2024-04-08T07:48:46.866Z,89.48
2024-04-08T07:51:13.766Z,89.66
2024-04-08T07:53:40.358Z,88.46
2024-04-08T07:56:06.899Z,88.82
2024-04-08T07:58:34.877Z,88.99
2024-04-08T08:01:01.490Z,87.99
2024-04-08T08:03:28.272Z,86.72
2024-04-08T08:05:55.983Z,86.10
2024-04-08T08:08:26.208Z,86.42
2024-04-08T08:10:53.476Z,86.41
2024-04-08T08:13:20.202Z,85.10
2024-04-08T08:15:56.868Z,84.13
2024-04-08T08:18:23.905Z,83.19
2024-04-08T08:20:51.790Z,81.51
2024-04-08T08:23:18.504Z,82.00
2024-04-08T08:25:47.011Z,77.60
2024-04-08T08:28:13.655Z,78.08
2024-04-08T08:30:41.581Z,80.20
2024-04-08T08:33:08.460Z,80.28
2024-04-08T08:35:35.073Z,76.91
2024-04-08T08:38:01.587Z,74.63
2024-04-08T08:40:28.528Z,76.95
2024-04-08T08:42:57.170Z,76.10
2024-04-08T08:45:24.284Z,77.01
2024-04-08T08:47:50.925Z,77.38
2024-04-08T08:50:17.573Z,75.95
2024-04-08T08:52:44.429Z,73.37
2024-04-08T08:55:11.547Z,73.46
2024-04-08T08:57:39.027Z,72.71
2024-04-08T09:00:07.171Z,71.04
2024-04-08T09:02:36.131Z,72.09
2024-04-08T09:05:02.827Z,73.83
2024-04-08T09:07:29.317Z,72.09
2024-04-08T09:09:57.313Z,71.32
2024-04-08T09:12:24.230Z,74.63
2024-04-08T09:14:52.548Z,69.71
2024-04-08T09:17:20.019Z,70.17
2024-04-08T09:19:46.593Z,69.92
2024-04-08T09:22:13.230Z,69.07
2024-04-08T09:24:40.242Z,69.88
2024-04-08T09:27:07.248Z,69.66
2024-04-08T09:29:34.025Z,69.32
2024-04-08T09:32:01.973Z,69.62
2024-04-08T09:34:30.134Z,72.26
2024-04-08T09:36:57.208Z,71.23
2024-04-08T09:39:25.127Z,73.30
2024-04-08T09:41:53.125Z,70.85
2024-04-08T09:44:20.871Z,72.10
2024-04-08T09:46:48.339Z,73.31
2024-04-08T09:49:21.514Z,73.04
2024-04-08T09:51:53.236Z,73.79
2024-04-08T09:54:22.647Z,72.42
2024-04-08T09:56:56.985Z,71.57
2024-04-08T09:59:25.721Z,72.66
2024-04-08T10:01:55.059Z,70.35
2024-04-08T10:04:23.597Z,71.82
2024-04-08T10:06:50.960Z,70.13
2024-04-08T10:09:22.052Z,69.94
2024-04-08T10:11:53.008Z,68.61
2024-04-08T10:14:20.776Z,68.59
2024-04-08T10:16:53.682Z,68.36
2024-04-08T10:19:22.239Z,66.15
2024-04-08T10:21:53.398Z,67.80
2024-04-08T10:24:38.421Z,67.21
2024-04-08T10:27:09.375Z,67.11
2024-04-08T10:29:39.281Z,66.66
2024-04-08T10:32:07.691Z,63.68
2024-04-08T10:34:37.811Z,65.21
2024-04-08T10:37:04.664Z,65.24
2024-04-08T10:39:31.189Z,63.99
2024-04-08T10:42:15.311Z,64.83
2024-04-08T10:44:43.105Z,63.54
2024-04-08T10:47:10.299Z,63.74
2024-04-08T10:49:37.107Z,61.56
2024-04-08T10:52:04.000Z,63.28
2024-04-08T10:54:32.332Z,62.76
2024-04-08T10:56:58.851Z,60.32
2024-04-08T10:59:25.370Z,59.49
2024-04-08T11:01:51.928Z,61.81
2024-04-08T11:04:19.302Z,61.76
2024-04-08T11:06:46.198Z,59.05
2024-04-08T11:09:12.842Z,61.72
2024-04-08T11:11:39.418Z,58.80
2024-04-08T11:14:06.674Z,60.33
2024-04-08T11:16:33.707Z,59.39
2024-04-08T11:19:02.123Z,57.36
2024-04-08T11:21:28.905Z,61.04
2024-04-08T11:23:55.540Z,59.48
2024-04-08T11:26:23.277Z,58.39
2024-04-08T11:28:49.758Z,59.35
2024-04-08T11:31:16.261Z,60.35
2024-04-08T11:33:42.888Z,61.33
2024-04-08T11:36:09.812Z,59.53
2024-04-08T11:38:37.086Z,59.24
2024-04-08T11:41:07.735Z,61.23
2024-04-08T11:43:35.284Z,63.76
2024-04-08T11:46:04.555Z,61.77
2024-04-08T11:48:32.071Z,61.67
2024-04-08T11:50:58.989Z,60.79
2024-04-08T11:53:25.591Z,61.00
2024-04-08T11:55:52.179Z,59.02
2024-04-08T11:58:18.692Z,56.16
2024-04-08T12:00:45.238Z,57.00
2024-04-08T12:03:11.792Z,55.32
2024-04-08T12:05:38.375Z,55.05
2024-04-08T12:08:05.098Z,51.88
2024-04-08T12:10:31.690Z,51.83
2024-04-08T12:13:14.592Z,52.86
2024-04-08T12:15:41.107Z,50.22
2024-04-08T12:18:08.054Z,49.96
2024-04-08T12:20:37.427Z,49.37
2024-04-08T12:23:04.091Z,48.87
2024-04-08T12:25:32.457Z,48.70
2024-04-08T12:28:00.302Z,49.05
2024-04-08T12:30:29.850Z,48.89
2024-04-08T12:32:56.406Z,50.27
2024-04-08T12:35:22.987Z,52.01
2024-04-08T12:37:49.723Z,52.72
2024-04-08T12:40:16.232Z,54.69
2024-04-08T12:42:42.737Z,53.94
2024-04-08T12:45:14.911Z,55.50
2024-04-08T12:47:42.583Z,56.21
2024-04-08T12:50:09.447Z,57.44
2024-04-08T12:52:36.350Z,58.47
2024-04-08T12:55:04.373Z,60.69
2024-04-08T12:57:31.254Z,61.22
2024-04-08T12:59:57.865Z,60.27
2024-04-08T13:02:27.008Z,62.26
2024-04-08T13:04:54.695Z,62.19
2024-04-08T13:07:22.269Z,61.30
2024-04-08T13:09:50.164Z,61.59
2024-04-08T13:12:16.868Z,61.21
2024-04-08T13:14:44.069Z,61.18
2024-04-08T13:17:10.843Z,61.72
2024-04-08T13:19:37.369Z,61.88
2024-04-08T13:22:04.498Z,62.55
2024-04-08T13:24:32.055Z,62.07
2024-04-08T13:26:58.770Z,62.04
2024-04-08T13:29:25.348Z,61.54
2024-04-08T13:31:52.079Z,59.43
2024-04-08T13:34:18.968Z,57.68
2024-04-08T13:36:45.766Z,57.36
2024-04-08T13:39:12.322Z,57.10
2024-04-08T13:41:39.766Z,57.21
2024-04-08T13:44:06.372Z,57.90
2024-04-08T13:46:33.433Z,58.01
2024-04-08T13:48:59.974Z,58.16
2024-04-08T13:51:26.531Z,59.24
2024-04-08T13:53:54.495Z,59.26
2024-04-08T13:56:21.346Z,60.78
2024-04-08T13:58:50.830Z,62.00
2024-04-08T14:01:18.030Z,61.91
2024-04-08T14:03:45.038Z,62.63
2024-04-08T14:06:13.690Z,61.94
2024-04-08T14:08:40.636Z,62.89
2024-04-08T14:11:07.316Z,63.80
2024-04-08T14:13:33.885Z,63.91
2024-04-08T14:16:00.406Z,61.86
2024-04-08T14:18:27.080Z,61.67
2024-04-08T14:20:53.638Z,60.28
2024-04-08T14:23:20.112Z,59.46
2024-04-08T14:25:46.605Z,58.03
2024-04-08T14:28:13.449Z,55.39
2024-04-08T14:30:40.058Z,53.88
2024-04-08T14:33:07.261Z,54.05
2024-04-08T14:35:34.115Z,54.07
2024-04-08T14:38:21.592Z,52.16
2024-04-08T14:40:47.280Z,53.25
2024-04-08T14:43:18.930Z,55.86
2024-04-08T14:45:52.687Z,56.11
2024-04-08T14:48:19.511Z,55.81
2024-04-08T14:50:47.727Z,55.11
2024-04-08T14:53:15.703Z,54.86
2024-04-08T14:55:43.302Z,54.51
2024-04-08T14:58:10.041Z,54.37
2024-04-08T15:00:36.739Z,54.69
2024-04-08T15:03:04.280Z,57.45
2024-04-08T15:05:31.354Z,55.71
2024-04-08T15:07:57.881Z,55.70
2024-04-08T15:10:25.265Z,57.95
2024-04-08T15:12:51.885Z,58.25
2024-04-08T15:15:18.511Z,60.30
2024-04-08T15:17:46.019Z,59.32
2024-04-08T15:20:12.710Z,60.47
2024-04-08T15:22:39.396Z,61.08
2024-04-08T15:25:06.043Z,60.21
2024-04-08T15:27:32.936Z,60.40
2024-04-08T15:30:00.006Z,62.14
2024-04-08T15:32:26.975Z,61.28
2024-04-08T15:34:53.627Z,62.11
2024-04-08T15:37:20.341Z,62.68
2024-04-08T15:39:46.854Z,62.93
2024-04-08T15:42:13.402Z,63.73
2024-04-08T15:44:39.974Z,64.39
2024-04-08T15:47:06.852Z,65.00
2024-04-08T15:49:33.363Z,64.69
2024-04-08T15:51:59.858Z,65.66
2024-04-08T15:54:26.951Z,65.04
2024-04-08T15:56:54.005Z,65.34
2024-04-08T15:59:20.883Z,65.18
2024-04-08T16:01:48.503Z,64.63
2024-04-08T16:04:15.457Z,64.30
2024-04-08T16:06:42.462Z,64.74
2024-04-08T16:09:10.088Z,64.06
2024-04-08T16:11:36.874Z,65.81
2024-04-08T16:14:03.466Z,66.34
2024-04-08T16:16:30.305Z,65.76
2024-04-08T16:18:57.074Z,66.39
2024-04-08T16:21:25.516Z,67.05
2024-04-08T16:23:55.730Z,67.66
2024-04-08T16:26:23.804Z,67.55
2024-04-08T16:29:02.823Z,66.64
2024-04-08T16:31:32.828Z,67.05
2024-04-08T16:34:01.008Z,67.58
2024-04-08T16:36:30.418Z,67.60
2024-04-08T16:38:58.103Z,67.88
2024-04-08T16:41:24.743Z,68.06
2024-04-08T16:43:51.412Z,68.52
2024-04-08T16:46:19.778Z,68.79
2024-04-08T16:48:46.479Z,70.44
2024-04-08T16:51:13.173Z,69.59
2024-04-08T16:53:41.253Z,70.17
2024-04-08T16:56:07.829Z,70.31
2024-04-08T16:58:34.361Z,70.72
2024-04-08T17:01:00.970Z,70.74
2024-04-08T17:03:29.290Z,71.10
2024-04-08T17:06:07.244Z,71.91
2024-04-08T17:08:34.101Z,72.68
2024-04-08T17:11:04.669Z,71.86
2024-04-08T17:13:32.189Z,73.01
2024-04-08T17:15:59.241Z,73.09
2024-04-08T17:18:26.740Z,73.42
2024-04-08T17:20:57.071Z,73.75
2024-04-08T17:23:26.415Z,74.57
2024-04-08T17:25:54.471Z,74.27
2024-04-08T17:28:21.112Z,74.14
2024-04-08T17:30:54.365Z,74.50
2024-04-08T17:33:21.167Z,75.49
2024-04-08T17:35:58.738Z,75.62
2024-04-08T17:38:26.199Z,76.01
2024-04-08T17:40:58.039Z,76.15
2024-04-08T17:43:24.549Z,76.42
2024-04-08T17:45:51.148Z,76.70
2024-04-08T17:48:17.896Z,75.89
2024-04-08T17:50:58.996Z,74.98
2024-04-08T17:53:29.775Z,75.32
2024-04-08T17:56:07.499Z,74.91
2024-04-08T17:58:35.942Z,75.62
2024-04-08T18:01:05.030Z,75.67
2024-04-08T18:03:32.500Z,76.59
2024-04-08T18:06:15.858Z,77.27
2024-04-08T18:08:45.387Z,77.40
2024-04-08T18:11:13.127Z,77.62
2024-04-08T18:13:40.671Z,78.03
2024-04-08T18:16:13.831Z,78.56
2024-04-08T18:18:45.474Z,78.51
2024-04-08T18:21:12.612Z,78.88
2024-04-08T18:23:39.461Z,79.14
2024-04-08T18:26:16.146Z,79.50
2024-04-08T18:28:43.651Z,79.36
2024-04-08T18:31:14.926Z,79.50
2024-04-08T18:33:42.657Z,80.05
2024-04-08T18:36:13.902Z,79.76
2024-04-08T18:38:40.892Z,80.90
2024-04-08T18:41:09.360Z,80.13
2024-04-08T18:43:37.938Z,80.74
2024-04-08T18:46:08.962Z,79.87
2024-04-08T18:48:36.089Z,81.05
2024-04-08T18:51:04.839Z,81.12
2024-04-08T18:53:31.801Z,81.32
2024-04-08T18:55:58.372Z,81.21
2024-04-08T18:58:24.945Z,81.61
2024-04-08T19:00:51.618Z,82.06
2024-04-08T19:03:18.464Z,82.43
2024-04-08T19:05:48.094Z,81.85
2024-04-08T19:08:16.246Z,81.99
2024-04-08T19:10:43.891Z,81.57
2024-04-08T19:13:10.844Z,81.42
2024-04-08T19:15:37.911Z,81.57
2024-04-08T19:18:05.215Z,82.00
2024-04-08T19:20:32.017Z,81.11
2024-04-08T19:22:58.536Z,81.40
2024-04-08T19:25:26.019Z,82.53
2024-04-08T19:27:55.503Z,82.24
2024-04-08T19:30:23.018Z,82.46
2024-04-08T19:32:50.195Z,82.93
2024-04-08T19:35:16.981Z,83.02
2024-04-08T19:37:44.536Z,83.21
2024-04-08T19:40:11.666Z,84.14
2024-04-08T19:42:38.252Z,83.69
2024-04-08T19:45:05.830Z,84.30
2024-04-08T19:47:34.335Z,84.27
2024-04-08T19:50:02.369Z,84.04
2024-04-08T19:52:29.355Z,84.51
2024-04-08T19:54:56.005Z,84.13
2024-04-08T19:57:22.641Z,83.97
2024-04-08T19:59:49.227Z,84.77
2024-04-08T20:02:15.786Z,84.20
2024-04-08T20:04:42.689Z,84.73
2024-04-08T20:07:09.219Z,84.68
2024-04-08T20:09:36.065Z,84.10
2024-04-08T20:12:02.701Z,84.41
2024-04-08T20:14:29.235Z,84.31
2024-04-08T20:16:55.797Z,84.39
2024-04-08T20:19:22.489Z,83.94
2024-04-08T20:21:49.839Z,83.63
2024-04-08T20:24:16.767Z,84.60
2024-04-08T20:26:43.484Z,84.52
2024-04-08T20:29:10.762Z,84.47
2024-04-08T20:31:37.267Z,85.29
2024-04-08T20:34:06.580Z,85.31
2024-04-08T20:36:33.765Z,85.91
2024-04-08T20:39:00.424Z,85.54
2024-04-08T20:41:26.977Z,85.76
2024-04-08T20:43:53.477Z,85.56
2024-04-08T20:46:20.222Z,85.97
2024-04-08T20:48:46.974Z,86.32
2024-04-08T20:51:13.729Z,86.17
2024-04-08T20:53:40.647Z,85.60
2024-04-08T20:56:08.836Z,85.97
2024-04-08T20:58:35.878Z,86.04
2024-04-08T21:01:06.633Z,86.00
2024-04-08T21:03:33.307Z,86.07
2024-04-08T21:06:04.943Z,85.94
2024-04-08T21:08:32.358Z,85.81
2024-04-08T21:11:02.723Z,85.81
2024-04-08T21:13:36.763Z,85.89
2024-04-08T21:16:06.089Z,86.07
2024-04-08T21:18:34.131Z,85.62
2024-04-08T21:21:05.910Z,86.14
2024-04-08T21:23:34.048Z,86.31
2024-04-08T21:26:10.832Z,86.28
2024-04-08T21:28:38.740Z,85.76
2024-04-08T21:31:06.099Z,86.07
2024-04-08T21:33:37.230Z,85.60
2024-04-08T21:36:05.030Z,86.02
2024-04-08T21:38:32.235Z,86.12
2024-04-08T21:41:09.294Z,86.41
2024-04-08T21:43:36.075Z,86.34
2024-04-08T21:46:04.446Z,86.47
2024-04-08T21:48:32.859Z,86.38
2024-04-08T21:51:00.976Z,86.67
2024-04-08T21:53:28.208Z,86.71
2024-04-08T21:56:00.283Z,86.25
2024-04-08T21:58:28.141Z,87.13
2024-04-08T22:00:56.570Z,87.25
2024-04-08T22:03:25.298Z,87.56
2024-04-08T22:05:52.224Z,87.15
2024-04-08T22:08:19.092Z,87.69
2024-04-08T22:10:46.020Z,88.05
2024-04-08T22:13:12.800Z,87.72
2024-04-08T22:15:39.852Z,88.55
2024-04-08T22:18:07.434Z,88.67
2024-04-08T22:20:34.416Z,88.74
2024-04-08T22:23:05.853Z,88.72
2024-04-08T22:25:32.798Z,88.60
2024-04-08T22:27:59.778Z,89.10
2024-04-08T22:30:26.431Z,89.02
2024-04-08T22:32:53.191Z,88.58
2024-04-08T22:35:20.565Z,88.96
2024-04-08T22:37:47.185Z,88.97
2024-04-08T22:40:13.698Z,88.83
2024-04-08T22:42:40.403Z,89.46
2024-04-08T22:45:07.317Z,89.61
2024-04-08T22:47:34.109Z,90.18
2024-04-08T22:50:00.658Z,89.95
2024-04-08T22:52:27.181Z,90.17
2024-04-08T22:54:53.720Z,90.59
2024-04-08T22:57:20.282Z,90.45
2024-04-08T22:59:46.782Z,90.70
2024-04-08T23:02:13.294Z,90.40
2024-04-08T23:04:40.422Z,90.51
2024-04-08T23:07:06.968Z,90.53
2024-04-08T23:09:34.185Z,90.88
2024-04-08T23:12:00.833Z,90.89
2024-04-08T23:14:27.441Z,90.98
2024-04-08T23:16:53.940Z,90.82
2024-04-08T23:19:20.524Z,90.68
2024-04-08T23:21:47.101Z,90.53
2024-04-08T23:24:13.713Z,90.98
2024-04-08T23:26:40.259Z,91.04
2024-04-08T23:29:06.733Z,90.85
2024-04-08T23:31:33.467Z,90.65
2024-04-08T23:34:00.233Z,90.87
2024-04-08T23:36:26.932Z,90.05
2024-04-08T23:38:53.527Z,89.76
2024-04-08T23:41:20.410Z,89.76
2024-04-08T23:43:47.612Z,89.79
2024-04-08T23:46:14.120Z,89.72
2024-04-08T23:48:40.856Z,89.79
2024-04-08T23:51:08.366Z,89.36
2024-04-08T23:53:34.926Z,89.57
2024-04-08T23:56:01.438Z,89.68
2024-04-08T23:58:27.991Z,89.49
